aviador You're here:

FMCZ Decoded Metar

DZAOUDZI in MAYOTTE ISLAND
Report Time2017-11-25 09:00:00
UTC Time2017-11-25 09:24:31
Flight Rules vfr VFR
Wind360° at 09 kt
W.Decomp.*RWY 34: 7.9 kt HW 4.2 kt RCW
Visibility9999 m
Phenomena:N/A
Clouds:Scattered 030 Hf
Expected CloudBase > 3,600 ft AGL from Temp-Dew spread
CeilingNone
Temp31°C (ISA +16)
Dew Point22°C (59% RH)
Heat Index34.6°C
QNH1012 hPa
Density Alt2,241 ft
Elevation23 ft
Report Wrong Elevation
Raw Report
FMCZ 250900Z 36009KT 330V030 9999 SCT030 31/22 Q1012 NOSIG=

Extra information for FMCZ:More info

Metar Taf Metar & Taf Last 4 Metars F.Rules Stats Wind Profile Meteogram Temp Stats Airport Information Weather charts Add Link Nearby VenuesMetar ALERT Operation Metar Decoded Social comments